createdAt,value
2023-11-18T00:00:12.498Z,9.08
2023-11-18T00:02:40.174Z,9.12
2023-11-18T00:05:08.699Z,9.15
2023-11-18T00:07:36.069Z,9.20
2023-11-18T00:10:04.823Z,9.22
2023-11-18T00:12:31.962Z,9.30
2023-11-18T00:14:58.976Z,9.36
2023-11-18T00:17:25.939Z,9.41
2023-11-18T00:19:54.934Z,9.46
2023-11-18T00:22:22.191Z,9.50
2023-11-18T00:24:49.437Z,9.55
2023-11-18T00:27:16.606Z,9.53
2023-11-18T00:29:44.899Z,9.53
2023-11-18T00:32:12.673Z,9.48
2023-11-18T00:34:40.138Z,9.45
2023-11-18T00:37:08.310Z,9.39
2023-11-18T00:39:35.621Z,9.33
2023-11-18T00:42:02.731Z,9.26
2023-11-18T00:44:29.798Z,9.25
2023-11-18T00:46:58.827Z,9.22
2023-11-18T00:49:27.077Z,9.24
2023-11-18T00:51:54.534Z,9.23
2023-11-18T00:54:21.468Z,9.25
2023-11-18T00:56:48.456Z,9.25
2023-11-18T00:59:16.688Z,9.23
2023-11-18T01:01:43.927Z,9.22
2023-11-18T01:04:11.010Z,9.22
2023-11-18T01:06:38.223Z,9.24
2023-11-18T01:09:05.213Z,9.25
2023-11-18T01:11:32.207Z,9.24
2023-11-18T01:13:59.249Z,9.22
2023-11-18T01:16:26.378Z,9.19
2023-11-18T01:18:53.473Z,9.13
2023-11-18T01:21:20.460Z,9.05
2023-11-18T01:23:47.683Z,9.00
2023-11-18T01:26:15.814Z,8.96
2023-11-18T01:28:44.489Z,8.95
2023-11-18T01:31:12.504Z,8.97
2023-11-18T01:33:41.769Z,8.99
2023-11-18T01:36:10.609Z,9.01
2023-11-18T01:38:40.246Z,9.05
2023-11-18T01:41:08.557Z,9.03
2023-11-18T01:43:36.247Z,9.05
2023-11-18T01:46:08.367Z,9.09
2023-11-18T01:48:35.759Z,9.08
2023-11-18T01:51:07.663Z,9.05
2023-11-18T01:53:41.032Z,9.00
2023-11-18T01:56:09.834Z,8.96
2023-11-18T01:58:37.552Z,9.03
2023-11-18T02:01:09.488Z,9.03
2023-11-18T02:03:37.525Z,9.06
2023-11-18T02:06:07.200Z,9.16
2023-11-18T02:08:39.889Z,9.16
2023-11-18T02:11:42.318Z,9.20
2023-11-18T02:14:17.439Z,9.23
2023-11-18T02:16:46.523Z,9.25
2023-11-18T02:19:26.061Z,9.33
2023-11-18T02:21:58.338Z,9.28
2023-11-18T02:24:29.282Z,9.27
2023-11-18T02:26:58.827Z,9.22
2023-11-18T02:29:30.695Z,9.19
2023-11-18T02:32:09.797Z,9.15
2023-11-18T02:34:52.516Z,9.09
2023-11-18T02:37:20.025Z,9.08
2023-11-18T02:39:55.190Z,9.06
2023-11-18T02:42:24.065Z,9.04
2023-11-18T02:45:00.502Z,9.01
2023-11-18T02:47:28.551Z,9.01
2023-11-18T02:50:07.834Z,9.00
2023-11-18T02:52:35.030Z,9.06
2023-11-18T02:55:02.329Z,9.06
2023-11-18T02:57:29.408Z,8.98
2023-11-18T02:59:56.669Z,8.99
2023-11-18T03:02:23.727Z,9.02
2023-11-18T03:04:50.716Z,9.07
2023-11-18T03:07:17.815Z,9.06
2023-11-18T03:09:44.917Z,9.10
2023-11-18T03:12:12.789Z,9.08
2023-11-18T03:14:39.791Z,9.10
2023-11-18T03:17:07.770Z,9.12
2023-11-18T03:19:38.223Z,9.11
2023-11-18T03:22:05.776Z,9.13
2023-11-18T03:24:32.774Z,9.17
2023-11-18T03:27:00.221Z,9.15
2023-11-18T03:29:27.207Z,9.12
2023-11-18T03:31:54.272Z,9.11
2023-11-18T03:34:22.144Z,9.18
2023-11-18T03:36:49.141Z,9.09
2023-11-18T03:39:16.280Z,9.16
2023-11-18T03:41:45.470Z,9.22
2023-11-18T03:44:15.637Z,9.26
2023-11-18T03:46:43.807Z,9.28
2023-11-18T03:49:11.067Z,9.31
2023-11-18T03:51:38.031Z,9.31
2023-11-18T03:54:05.590Z,9.26
2023-11-18T03:56:32.895Z,9.22
2023-11-18T03:59:00.248Z,9.17
2023-11-18T04:01:28.719Z,9.12
2023-11-18T04:03:56.594Z,9.07
2023-11-18T04:06:25.608Z,9.02
2023-11-18T04:08:52.960Z,8.98
2023-11-18T04:11:20.562Z,8.98
2023-11-18T04:13:47.602Z,8.94
2023-11-18T04:16:20.306Z,8.95
2023-11-18T04:18:47.509Z,8.95
2023-11-18T04:21:15.297Z,8.95
2023-11-18T04:23:45.086Z,8.94
2023-11-18T04:26:12.158Z,8.91
2023-11-18T04:28:39.651Z,8.93
2023-11-18T04:31:07.434Z,8.93
2023-11-18T04:33:34.694Z,8.92
2023-11-18T04:36:01.942Z,8.91
2023-11-18T04:38:29.059Z,8.88
2023-11-18T04:40:56.978Z,8.85
2023-11-18T04:43:34.585Z,8.79
2023-11-18T04:46:09.140Z,8.72
2023-11-18T04:48:38.810Z,8.69
2023-11-18T04:51:07.888Z,8.66
2023-11-18T04:53:35.410Z,8.64
2023-11-18T04:56:03.821Z,8.60
2023-11-18T04:58:31.079Z,8.55
2023-11-18T05:00:58.312Z,8.50
2023-11-18T05:03:25.663Z,8.44
2023-11-18T05:05:55.985Z,8.38
2023-11-18T05:08:24.779Z,8.33
2023-11-18T05:10:52.087Z,8.27
2023-11-18T05:13:20.300Z,8.20
2023-11-18T05:15:48.677Z,8.16
2023-11-18T05:18:16.854Z,8.14
2023-11-18T05:20:45.111Z,8.10
2023-11-18T05:23:13.794Z,8.06
2023-11-18T05:25:41.927Z,8.01
2023-11-18T05:28:12.397Z,7.97
2023-11-18T05:30:46.254Z,7.94
2023-11-18T05:33:18.761Z,7.86
2023-11-18T05:35:50.622Z,7.83
2023-11-18T05:38:21.196Z,7.79
2023-11-18T05:40:58.970Z,7.71
2023-11-18T05:43:31.086Z,7.69
2023-11-18T05:46:18.822Z,7.62
2023-11-18T05:48:46.033Z,7.61
2023-11-18T05:51:13.869Z,7.58
2023-11-18T05:53:43.200Z,7.55
2023-11-18T05:56:10.353Z,7.53
2023-11-18T05:58:38.603Z,7.51
2023-11-18T06:01:10.783Z,7.41
2023-11-18T06:03:40.566Z,7.21
2023-11-18T06:06:10.854Z,7.20
2023-11-18T06:08:42.922Z,7.20
2023-11-18T06:11:16.314Z,7.20
2023-11-18T06:13:49.832Z,7.17
2023-11-18T06:16:25.586Z,7.16
2023-11-18T06:18:58.158Z,7.17
2023-11-18T06:21:31.753Z,7.17
2023-11-18T06:24:01.588Z,7.13
2023-11-18T06:26:29.945Z,7.14
2023-11-18T06:28:57.861Z,7.10
2023-11-18T06:31:25.769Z,7.07
2023-11-18T06:33:54.064Z,7.07
2023-11-18T06:36:23.397Z,7.04
2023-11-18T06:38:53.289Z,7.01
2023-11-18T06:41:34.643Z,7.01
2023-11-18T06:44:04.185Z,7.00
2023-11-18T06:46:35.682Z,6.99
2023-11-18T06:49:08.003Z,6.97
2023-11-18T06:51:37.590Z,6.95
2023-11-18T06:54:10.772Z,6.96
2023-11-18T06:56:46.034Z,6.96
2023-11-18T06:59:16.333Z,6.98
2023-11-18T07:01:46.294Z,6.99
2023-11-18T07:04:15.930Z,7.01
2023-11-18T07:06:44.580Z,7.04
2023-11-18T07:09:14.790Z,7.05
2023-11-18T07:11:42.480Z,7.10
2023-11-18T07:14:10.609Z,7.16
2023-11-18T07:16:41.091Z,7.19
2023-11-18T07:19:18.821Z,7.25
2023-11-18T07:21:45.931Z,7.25
2023-11-18T07:24:13.503Z,7.24
2023-11-18T07:26:40.869Z,7.24
2023-11-18T07:29:10.896Z,7.26
2023-11-18T07:31:37.948Z,7.34
2023-11-18T07:34:06.898Z,7.39
2023-11-18T07:36:34.739Z,7.45
2023-11-18T07:39:02.824Z,7.46
2023-11-18T07:41:33.654Z,7.54
2023-11-18T07:44:01.579Z,7.54
2023-11-18T07:46:32.477Z,7.65
2023-11-18T07:49:02.682Z,7.69
2023-11-18T07:51:30.204Z,7.72
2023-11-18T07:53:57.759Z,7.75
2023-11-18T07:56:25.016Z,7.81
2023-11-18T07:58:53.637Z,7.81
2023-11-18T08:01:23.070Z,7.84
2023-11-18T08:03:52.457Z,7.92
2023-11-18T08:06:20.036Z,7.97
2023-11-18T08:08:49.243Z,8.00
2023-11-18T08:11:16.535Z,8.11
2023-11-18T08:13:45.338Z,8.15
2023-11-18T08:16:14.028Z,8.15
2023-11-18T08:18:42.236Z,8.26
2023-11-18T08:21:10.101Z,8.24
2023-11-18T08:23:38.814Z,8.31
2023-11-18T08:26:07.935Z,8.39
2023-11-18T08:28:36.710Z,8.49
2023-11-18T08:31:04.343Z,8.56
2023-11-18T08:33:31.856Z,8.63
2023-11-18T08:35:59.109Z,8.68
2023-11-18T08:38:26.874Z,8.74
2023-11-18T08:40:57.055Z,8.82
2023-11-18T08:43:26.987Z,8.90
2023-11-18T08:45:54.490Z,8.97
2023-11-18T08:48:24.105Z,9.05
2023-11-18T08:50:53.068Z,9.12
2023-11-18T08:53:27.168Z,9.17
2023-11-18T08:55:55.948Z,9.13
2023-11-18T08:58:29.563Z,9.23
2023-11-18T09:01:07.612Z,9.37
2023-11-18T09:03:36.595Z,9.38
2023-11-18T09:06:14.081Z,9.53
2023-11-18T09:08:44.296Z,9.64
2023-11-18T09:11:16.256Z,9.71
2023-11-18T09:13:52.539Z,9.73
2023-11-18T09:16:22.367Z,9.69
2023-11-18T09:18:52.689Z,9.91
2023-11-18T09:21:24.952Z,9.99
2023-11-18T09:23:53.037Z,10.06
2023-11-18T09:26:23.040Z,10.15
2023-11-18T09:28:51.365Z,10.24
2023-11-18T09:31:18.654Z,10.34
2023-11-18T09:33:53.839Z,10.39
2023-11-18T09:36:23.937Z,10.41
2023-11-18T09:38:51.183Z,10.47
2023-11-18T09:41:18.836Z,10.54
2023-11-18T09:43:48.777Z,10.59
2023-11-18T09:46:31.690Z,10.58
2023-11-18T09:49:39.959Z,10.71
2023-11-18T09:52:08.232Z,10.78
2023-11-18T09:54:54.650Z,10.91
2023-11-18T09:57:38.632Z,10.95
2023-11-18T10:00:26.725Z,10.96
2023-11-18T10:02:56.922Z,11.06
2023-11-18T10:05:28.741Z,11.16
2023-11-18T10:07:56.139Z,11.27
2023-11-18T10:10:23.284Z,11.31
2023-11-18T10:12:59.335Z,11.38
2023-11-18T10:15:28.287Z,11.43
2023-11-18T10:18:07.922Z,11.45
2023-11-18T10:20:50.646Z,11.35
2023-11-18T10:23:21.912Z,11.44
2023-11-18T10:25:59.644Z,11.58
2023-11-18T10:28:29.006Z,11.59
2023-11-18T10:31:04.703Z,11.66
2023-11-18T10:33:42.704Z,11.72
2023-11-18T10:36:25.456Z,11.74
2023-11-18T10:38:57.349Z,11.81
2023-11-18T10:41:25.123Z,11.90
2023-11-18T10:44:16.812Z,11.96
2023-11-18T10:46:54.243Z,11.96
2023-11-18T10:49:25.202Z,12.02
2023-11-18T10:51:53.362Z,12.03
2023-11-18T10:54:20.640Z,12.18
2023-11-18T10:56:50.542Z,12.22
2023-11-18T10:59:19.486Z,12.27
2023-11-18T11:01:50.968Z,12.31
2023-11-18T11:04:21.978Z,12.43
2023-11-18T11:06:54.304Z,12.49
2023-11-18T11:15:52.044Z,12.68
2023-11-18T11:18:36.110Z,12.73
2023-11-18T11:21:18.498Z,12.87
2023-11-18T11:24:15.489Z,12.96
2023-11-18T11:27:05.608Z,13.04
2023-11-18T11:29:44.327Z,13.16
2023-11-18T11:32:32.013Z,13.23
2023-11-18T11:35:09.412Z,13.30
2023-11-18T11:37:39.264Z,13.30
2023-11-18T11:40:12.061Z,13.34
2023-11-18T11:42:43.814Z,13.43
2023-11-18T11:45:21.364Z,13.47
2023-11-18T11:47:53.712Z,13.56
2023-11-18T11:50:33.648Z,13.64
2023-11-18T11:53:16.681Z,13.70
2023-11-18T11:55:55.305Z,13.75
2023-11-18T11:58:34.371Z,13.84
2023-11-18T12:01:34.664Z,13.91
2023-11-18T12:04:22.151Z,13.99
2023-11-18T12:06:56.885Z,14.08
2023-11-18T12:09:34.286Z,14.14
2023-11-18T12:12:03.986Z,14.20
2023-11-18T12:14:36.236Z,14.24
2023-11-18T12:17:14.628Z,14.30
2023-11-18T12:20:03.048Z,14.33
2023-11-18T12:23:16.056Z,14.33
2023-11-18T12:25:44.179Z,14.44
2023-11-18T12:28:15.919Z,14.49
2023-11-18T12:30:57.882Z,14.54
2023-11-18T12:33:30.253Z,14.57
2023-11-18T12:36:56.869Z,14.62
2023-11-18T12:40:19.129Z,14.66
2023-11-18T12:43:06.485Z,14.75
2023-11-18T12:46:01.493Z,14.81
2023-11-18T12:48:33.647Z,14.82
2023-11-18T12:51:01.565Z,14.89
2023-11-18T12:53:29.985Z,14.93
2023-11-18T12:56:00.157Z,14.97
2023-11-18T12:58:27.444Z,15.00
2023-11-18T13:01:00.572Z,15.10
2023-11-18T13:03:27.755Z,15.01
2023-11-18T13:05:55.129Z,15.04
2023-11-18T13:08:23.883Z,15.07
2023-11-18T13:10:51.713Z,15.14
2023-11-18T13:13:20.862Z,15.15
2023-11-18T13:15:51.931Z,15.20
2023-11-18T13:18:19.096Z,15.24
2023-11-18T13:20:59.814Z,15.29
2023-11-18T13:23:28.170Z,15.31
2023-11-18T13:26:01.173Z,15.33
2023-11-18T13:28:28.891Z,15.39
2023-11-18T13:30:56.284Z,15.41
2023-11-18T13:33:24.845Z,15.45
2023-11-18T13:35:52.134Z,15.46
2023-11-18T13:38:19.816Z,15.47
2023-11-18T13:40:49.235Z,15.47
2023-11-18T13:43:17.615Z,15.47
2023-11-18T13:45:44.837Z,15.49
2023-11-18T13:48:14.740Z,15.48
2023-11-18T13:50:44.302Z,15.48
2023-11-18T13:53:12.376Z,15.49
2023-11-18T13:55:41.566Z,15.51
2023-11-18T13:58:11.804Z,15.49
2023-11-18T14:00:43.373Z,15.52
2023-11-18T14:03:13.221Z,15.53
2023-11-18T14:05:40.440Z,15.53
2023-11-18T14:08:11.233Z,15.47
2023-11-18T14:10:41.347Z,15.46
2023-11-18T14:13:14.425Z,15.46
2023-11-18T14:15:44.061Z,15.46
2023-11-18T14:18:11.935Z,15.41
2023-11-18T14:20:39.160Z,15.33
2023-11-18T14:23:06.619Z,15.28
2023-11-18T14:25:35.096Z,15.23
2023-11-18T14:28:03.834Z,15.22
2023-11-18T14:30:31.583Z,15.18
2023-11-18T14:32:58.826Z,15.13
2023-11-18T14:35:30.014Z,15.07
2023-11-18T14:37:58.147Z,15.01
2023-11-18T14:40:25.472Z,14.94
2023-11-18T14:42:53.486Z,14.90
2023-11-18T14:45:21.117Z,14.84
2023-11-18T14:47:49.890Z,14.79
2023-11-18T14:50:21.911Z,14.71
2023-11-18T14:52:52.884Z,14.63
2023-11-18T14:55:20.226Z,14.57
2023-11-18T14:57:47.892Z,14.52
2023-11-18T15:00:23.946Z,14.45
2023-11-18T15:02:53.765Z,14.40
2023-11-18T15:05:23.568Z,14.35
2023-11-18T15:08:01.849Z,14.27
2023-11-18T15:10:29.803Z,14.20
2023-11-18T15:13:00.045Z,14.13
2023-11-18T15:15:33.347Z,14.08
2023-11-18T15:18:09.880Z,13.99
2023-11-18T15:20:46.027Z,13.93
2023-11-18T15:23:19.416Z,13.87
2023-11-18T15:25:46.599Z,13.80
2023-11-18T15:28:14.280Z,13.74
2023-11-18T15:30:41.791Z,13.68
2023-11-18T15:33:11.722Z,13.62
2023-11-18T15:35:39.226Z,13.51
2023-11-18T15:38:10.358Z,13.44
2023-11-18T15:40:38.235Z,13.36
2023-11-18T15:43:12.735Z,13.31
2023-11-18T15:45:40.062Z,13.25
2023-11-18T15:48:08.501Z,13.22
2023-11-18T15:50:39.015Z,13.16
2023-11-18T15:53:09.842Z,13.11
2023-11-18T15:55:40.002Z,13.05
2023-11-18T15:58:07.178Z,13.00
2023-11-18T16:00:34.722Z,12.96
2023-11-18T16:03:03.150Z,12.89
2023-11-18T16:05:35.889Z,12.83
2023-11-18T16:08:08.733Z,12.79
2023-11-18T16:10:36.134Z,12.70
2023-11-18T16:13:03.626Z,12.65
2023-11-18T16:15:33.136Z,12.59
2023-11-18T16:18:02.122Z,12.54
2023-11-18T16:20:35.523Z,12.48
2023-11-18T16:23:04.333Z,12.41
2023-11-18T16:25:32.300Z,12.36
2023-11-18T16:28:03.292Z,12.30
2023-11-18T16:30:31.285Z,12.28
2023-11-18T16:33:02.316Z,12.25
2023-11-18T16:35:30.711Z,12.23
2023-11-18T16:37:58.295Z,12.17
2023-11-18T16:40:25.997Z,12.10
2023-11-18T16:43:00.926Z,12.03
2023-11-18T16:45:29.516Z,12.00
2023-11-18T16:47:56.900Z,11.97
2023-11-18T16:50:27.956Z,11.91
2023-11-18T16:52:56.631Z,11.87
2023-11-18T16:55:24.353Z,11.80
2023-11-18T16:57:54.294Z,11.77
2023-11-18T17:00:26.911Z,11.72
2023-11-18T17:02:58.304Z,11.66
2023-11-18T17:05:31.669Z,11.59
2023-11-18T17:08:00.649Z,11.55
2023-11-18T17:10:28.488Z,11.53
2023-11-18T17:12:55.763Z,11.48
2023-11-18T17:15:22.822Z,11.45
2023-11-18T17:18:04.472Z,11.41
2023-11-18T17:20:32.265Z,11.38
2023-11-18T17:22:59.687Z,11.35
2023-11-18T17:25:26.993Z,11.33
2023-11-18T17:27:54.505Z,11.28
2023-11-18T17:30:22.859Z,11.25
2023-11-18T17:32:53.186Z,11.22
2023-11-18T17:35:21.784Z,11.22
2023-11-18T17:37:49.249Z,11.22
2023-11-18T17:40:18.686Z,11.19
2023-11-18T17:42:46.412Z,11.16
2023-11-18T17:45:15.404Z,11.13
2023-11-18T17:47:44.652Z,11.09
2023-11-18T17:50:16.487Z,11.05
2023-11-18T17:52:46.067Z,10.98
2023-11-18T17:55:14.370Z,10.95
2023-11-18T17:57:42.015Z,10.92
2023-11-18T18:00:14.783Z,10.90
2023-11-18T18:02:43.322Z,10.88
2023-11-18T18:05:13.759Z,10.83
2023-11-18T18:07:42.717Z,10.79
2023-11-18T18:10:13.398Z,10.77
2023-11-18T18:12:44.098Z,10.73
2023-11-18T18:15:14.410Z,10.72
2023-11-18T18:17:42.149Z,10.69
2023-11-18T18:20:10.948Z,10.66
2023-11-18T18:22:39.957Z,10.62
2023-11-18T18:25:08.347Z,10.62
2023-11-18T18:27:35.465Z,10.57
2023-11-18T18:30:04.094Z,10.55
2023-11-18T18:32:32.929Z,10.52
2023-11-18T18:35:00.264Z,10.52
2023-11-18T18:37:28.843Z,10.50
2023-11-18T18:39:56.691Z,10.46
2023-11-18T18:42:25.612Z,10.43
2023-11-18T18:44:55.670Z,10.41
2023-11-18T18:47:25.262Z,10.37
2023-11-18T18:49:54.021Z,10.33
2023-11-18T18:52:21.289Z,10.28
2023-11-18T18:54:48.339Z,10.22
2023-11-18T18:57:16.653Z,10.20
2023-11-18T18:59:44.086Z,10.17
2023-11-18T19:02:12.727Z,10.14
2023-11-18T19:04:39.954Z,10.12
2023-11-18T19:07:10.960Z,10.06
2023-11-18T19:09:38.283Z,10.03
2023-11-18T19:12:13.096Z,10.00
2023-11-18T19:14:42.625Z,9.98
2023-11-18T19:17:10.690Z,9.94
2023-11-18T19:19:37.889Z,9.91
2023-11-18T19:22:07.439Z,9.87
2023-11-18T19:24:34.662Z,9.87
2023-11-18T19:27:01.837Z,9.85
2023-11-18T19:29:29.314Z,9.84
2023-11-18T19:31:56.697Z,9.86
2023-11-18T19:34:23.818Z,9.83
2023-11-18T19:36:50.849Z,9.81
2023-11-18T19:39:20.056Z,9.79
2023-11-18T19:41:47.629Z,9.75
2023-11-18T19:44:15.000Z,9.74
2023-11-18T19:46:43.754Z,9.75
2023-11-18T19:49:11.985Z,9.72
2023-11-18T19:51:39.287Z,9.72
2023-11-18T19:54:06.450Z,9.70
2023-11-18T19:56:33.946Z,9.70
2023-11-18T19:59:01.892Z,9.66
2023-11-18T20:01:29.917Z,9.64
2023-11-18T20:03:58.403Z,9.62
2023-11-18T20:06:28.874Z,9.56
2023-11-18T20:09:00.415Z,9.53
2023-11-18T20:11:35.835Z,9.48
2023-11-18T20:14:09.517Z,9.43
2023-11-18T20:16:44.784Z,9.40
2023-11-18T20:19:18.523Z,9.38
2023-11-18T20:21:49.739Z,9.35
2023-11-18T20:24:22.914Z,9.34
2023-11-18T20:26:58.004Z,9.28
2023-11-18T20:29:27.476Z,9.26
2023-11-18T20:31:59.186Z,9.22
2023-11-18T20:34:31.818Z,9.20
2023-11-18T20:37:08.497Z,9.17
2023-11-18T20:39:42.284Z,9.18
2023-11-18T20:42:27.733Z,9.17
2023-11-18T20:44:58.988Z,9.12
2023-11-18T20:47:28.193Z,9.08
2023-11-18T20:50:01.332Z,9.05
2023-11-18T20:52:34.352Z,9.04
2023-11-18T20:55:04.352Z,9.03
2023-11-18T20:57:42.456Z,9.01
2023-11-18T21:00:14.994Z,9.03
2023-11-18T21:02:51.851Z,9.03
2023-11-18T21:05:23.081Z,9.04
2023-11-18T21:07:59.276Z,9.03
2023-11-18T21:10:38.520Z,9.02
2023-11-18T21:13:08.807Z,9.00
2023-11-18T21:15:37.995Z,9.00
2023-11-18T21:18:08.288Z,9.00
2023-11-18T21:20:35.752Z,8.98
2023-11-18T21:23:03.556Z,8.96
2023-11-18T21:25:32.366Z,8.95
2023-11-18T21:28:05.443Z,8.95
2023-11-18T21:30:46.118Z,8.94
2023-11-18T21:33:22.886Z,8.94
2023-11-18T21:35:56.410Z,8.93
2023-11-18T21:38:53.282Z,8.93
2023-11-18T21:41:24.458Z,8.90
2023-11-18T21:43:55.249Z,8.90
2023-11-18T21:46:28.009Z,8.89
2023-11-18T21:48:57.756Z,8.86
2023-11-18T21:51:24.773Z,8.83
2023-11-18T21:53:51.836Z,8.82
2023-11-18T21:56:18.969Z,8.79
2023-11-18T21:58:46.092Z,8.73
2023-11-18T22:01:16.075Z,8.70
2023-11-18T22:03:44.046Z,8.68
2023-11-18T22:06:11.381Z,8.64
2023-11-18T22:08:39.090Z,8.64
2023-11-18T22:11:06.358Z,8.64
2023-11-18T22:13:33.477Z,8.64
2023-11-18T22:16:01.927Z,8.64
2023-11-18T22:18:29.186Z,8.62
2023-11-18T22:20:58.143Z,8.66
2023-11-18T22:23:27.923Z,8.65
2023-11-18T22:25:55.082Z,8.66
2023-11-18T22:28:22.166Z,8.68
2023-11-18T22:30:50.944Z,8.70
2023-11-18T22:35:49.791Z,8.75
2023-11-18T22:38:16.985Z,8.75
2023-11-18T22:40:46.440Z,8.77
2023-11-18T22:43:15.596Z,8.77
2023-11-18T22:45:42.649Z,8.75
2023-11-18T22:48:09.679Z,8.74
2023-11-18T22:50:39.663Z,8.75
2023-11-18T22:53:10.186Z,8.75
2023-11-18T22:55:39.622Z,8.74
2023-11-18T22:58:09.184Z,8.73
2023-11-18T23:00:39.696Z,8.72
2023-11-18T23:03:07.892Z,8.73
2023-11-18T23:05:37.474Z,8.68
2023-11-18T23:08:14.150Z,8.65
2023-11-18T23:10:41.879Z,8.65
2023-11-18T23:13:09.794Z,8.64
2023-11-18T23:15:41.018Z,8.64
2023-11-18T23:18:10.706Z,8.65
2023-11-18T23:20:39.208Z,8.64
2023-11-18T23:23:06.751Z,8.64
2023-11-18T23:25:34.915Z,8.63
2023-11-18T23:28:06.258Z,8.66
2023-11-18T23:30:33.423Z,8.67
2023-11-18T23:33:00.618Z,8.68
2023-11-18T23:35:31.361Z,8.65
2023-11-18T23:37:58.528Z,8.65
2023-11-18T23:40:26.773Z,8.62
2023-11-18T23:42:54.120Z,8.61
2023-11-18T23:45:21.508Z,8.60
2023-11-18T23:47:52.034Z,8.59
2023-11-18T23:50:21.248Z,8.57
2023-11-18T23:52:48.479Z,8.57
2023-11-18T23:55:15.662Z,8.53
2023-11-18T23:57:43.541Z,8.50
